Time;durP1;ratioP1;P1;durP2;ratioP2;P2;SDS_P1;SDS_P2;PMS_P1;PMS_P2;Temp;Humidity;BMP_temperature;BMP_pressure;BME280_temperature;BME280_humidity;BME280_pressure;Samples;Min_cycle;Max_cycle;Signal;HPM_P1;HPM_P2
2023/08/11 00:00:03;;;;;;;2.40;2.20;;;21.90;99.90;;;;;;5002024;28;20494;-46
2023/08/11 00:02:31;;;;;;;2.88;2.40;;;21.90;99.90;;;;;;4999360;28;20562;-48
2023/08/11 00:04:58;;;;;;;2.40;2.20;;;21.90;99.90;;;;;;5002591;28;20207;-47
2023/08/11 00:07:24;;;;;;;3.50;2.20;;;21.90;99.90;;;;;;5007329;28;21500;-48
2023/08/11 00:09:51;;;;;;;1.90;1.70;;;21.90;99.90;;;;;;5003932;28;20553;-44
2023/08/11 00:12:18;;;;;;;6.13;1.73;;;21.90;99.90;;;;;;5003665;28;20994;-48
2023/08/11 00:14:45;;;;;;;4.37;1.90;;;21.90;99.90;;;;;;5004043;28;20479;-46
2023/08/11 00:17:11;;;;;;;3.67;2.60;;;21.90;99.90;;;;;;5002585;28;20458;-44
2023/08/11 00:19:40;;;;;;;2.00;1.70;;;21.90;99.90;;;;;;5004571;28;21017;-45
2023/08/11 00:22:07;;;;;;;1.90;1.80;;;21.90;99.90;;;;;;5002958;28;20462;-50
2023/08/11 00:24:34;;;;;;;1.60;1.50;;;21.90;99.90;;;;;;5002113;28;20987;-46
2023/08/11 00:27:02;;;;;;;2.23;1.60;;;21.80;99.90;;;;;;5004873;28;20463;-44
2023/08/11 00:29:31;;;;;;;2.10;1.90;;;21.90;99.90;;;;;;5004252;28;20461;-44
2023/08/11 00:31:58;;;;;;;3.30;1.80;;;21.80;99.90;;;;;;5001806;28;20458;-49
2023/08/11 00:34:25;;;;;;;3.00;2.43;;;21.80;99.90;;;;;;5000969;28;20937;-44
2023/08/11 00:36:55;;;;;;;3.37;2.47;;;21.80;99.90;;;;;;4998474;28;20455;-44
2023/08/11 00:39:21;;;;;;;2.20;1.83;;;21.80;99.90;;;;;;4999214;28;20459;-44
2023/08/11 00:41:48;;;;;;;2.57;2.17;;;21.80;99.90;;;;;;4998555;28;21000;-46
2023/08/11 00:44:15;;;;;;;2.23;1.83;;;21.80;99.90;;;;;;5001612;28;20459;-44
2023/08/11 00:46:42;;;;;;;2.27;2.07;;;21.80;99.90;;;;;;4997020;28;20968;-43
2023/08/11 00:49:09;;;;;;;2.20;1.93;;;21.80;99.90;;;;;;5002777;28;20462;-45
2023/08/11 00:51:36;;;;;;;2.63;1.73;;;21.80;99.90;;;;;;5000858;28;20455;-44
2023/08/11 00:54:06;;;;;;;3.30;2.53;;;21.80;99.90;;;;;;5000301;28;20463;-46
2023/08/11 00:56:33;;;;;;;2.30;2.10;;;21.80;99.90;;;;;;5000577;28;20490;-44
2023/08/11 00:59:01;;;;;;;2.23;2.00;;;21.80;99.90;;;;;;5003056;28;20605;-46
2023/08/11 01:01:28;;;;;;;2.30;2.10;;;21.80;99.90;;;;;;4999603;28;20487;-45
2023/08/11 01:03:54;;;;;;;2.17;1.60;;;21.80;99.90;;;;;;5001296;28;20459;-44
2023/08/11 01:06:31;;;;;;;2.40;2.10;;;21.80;99.90;;;;;;5001151;28;20840;-44
2023/08/11 01:09:08;;;;;;;3.00;2.20;;;21.80;99.90;;;;;;5002149;28;20470;-46
2023/08/11 01:11:41;;;;;;;1.80;1.70;;;21.80;99.90;;;;;;5002715;28;20484;-47
2023/08/11 01:14:15;;;;;;;3.63;1.97;;;21.80;99.90;;;;;;5005162;28;20451;-45
2023/08/11 01:16:43;;;;;;;3.33;2.17;;;21.80;99.90;;;;;;5004943;28;20695;-48
2023/08/11 01:19:13;;;;;;;2.10;1.90;;;21.80;99.90;;;;;;5005591;28;20505;-48
2023/08/11 01:21:41;;;;;;;2.37;2.17;;;21.80;99.90;;;;;;5002967;28;20470;-44
2023/08/11 01:24:10;;;;;;;6.67;2.10;;;21.80;99.90;;;;;;5008482;28;20521;-46
2023/08/11 01:26:37;;;;;;;3.10;1.73;;;21.80;99.90;;;;;;5007511;28;20467;-43
2023/08/11 01:29:04;;;;;;;2.27;1.90;;;21.80;99.90;;;;;;5008562;28;20445;-43
2023/08/11 01:31:30;;;;;;;4.23;2.53;;;21.80;99.90;;;;;;5002432;28;20454;-46
2023/08/11 01:33:58;;;;;;;4.47;2.47;;;21.80;99.90;;;;;;5007666;28;20475;-44
2023/08/11 01:36:25;;;;;;;6.60;1.93;;;21.80;99.90;;;;;;5002855;28;20530;-46
2023/08/11 01:38:52;;;;;;;2.67;2.30;;;21.80;99.90;;;;;;5005409;28;20900;-47
2023/08/11 01:41:20;;;;;;;1.93;1.83;;;21.80;99.90;;;;;;5001454;28;20468;-45
2023/08/11 01:43:49;;;;;;;2.77;2.10;;;21.70;99.90;;;;;;5005371;28;20974;-45
2023/08/11 01:46:16;;;;;;;1.80;1.40;;;21.70;99.90;;;;;;5004027;28;20777;-46
2023/08/11 01:48:43;;;;;;;1.80;1.70;;;21.70;99.90;;;;;;5004220;28;20997;-46
2023/08/11 01:51:10;;;;;;;3.00;1.87;;;21.70;99.90;;;;;;5003748;28;20459;-44
2023/08/11 01:53:37;;;;;;;1.87;1.67;;;21.70;99.90;;;;;;5003749;28;20878;-47
2023/08/11 01:56:05;;;;;;;2.37;2.10;;;21.70;99.90;;;;;;5003987;28;20505;-44
2023/08/11 01:58:33;;;;;;;3.20;2.07;;;21.70;99.90;;;;;;5004160;28;21050;-45
2023/08/11 02:01:02;;;;;;;1.90;1.70;;;21.70;99.90;;;;;;5003114;28;20507;-45
2023/08/11 02:03:29;;;;;;;2.53;2.13;;;21.70;99.90;;;;;;5003844;28;20470;-44
2023/08/11 02:05:58;;;;;;;2.30;1.73;;;21.70;99.90;;;;;;5003239;28;20514;-48
2023/08/11 02:08:25;;;;;;;2.30;1.93;;;21.70;99.90;;;;;;5003193;28;20463;-44
2023/08/11 02:10:53;;;;;;;2.43;1.70;;;21.70;99.90;;;;;;5005010;28;20995;-45
2023/08/11 02:13:19;;;;;;;2.28;2.08;;;21.70;99.90;;;;;;5005029;28;20546;-43
2023/08/11 02:15:47;;;;;;;2.40;2.10;;;21.70;99.90;;;;;;5003155;28;20228;-47
2023/08/11 02:18:14;;;;;;;2.10;1.60;;;21.70;99.90;;;;;;5005167;28;20470;-48
2023/08/11 02:20:41;;;;;;;3.30;2.20;;;21.70;99.90;;;;;;5004330;28;20211;-43
2023/08/11 02:23:08;;;;;;;2.47;2.00;;;21.70;99.90;;;;;;5004748;28;20458;-46
2023/08/11 02:25:35;;;;;;;2.70;2.50;;;21.70;99.90;;;;;;5004812;28;20865;-45
2023/08/11 02:28:02;;;;;;;1.67;1.50;;;21.70;99.90;;;;;;5004741;28;20443;-46
2023/08/11 02:30:29;;;;;;;5.10;2.13;;;21.70;99.90;;;;;;5007431;28;20510;-45
2023/08/11 02:32:57;;;;;;;2.60;2.07;;;21.70;99.90;;;;;;5005303;28;20467;-46
2023/08/11 02:35:24;;;;;;;2.10;1.90;;;21.70;99.90;;;;;;5005479;28;21242;-45
2023/08/11 02:37:51;;;;;;;3.47;2.30;;;21.70;99.90;;;;;;5005999;28;20459;-46
2023/08/11 02:40:19;;;;;;;1.70;1.60;;;21.70;99.90;;;;;;5001712;28;20463;-48
2023/08/11 02:42:56;;;;;;;1.90;1.70;;;21.70;99.90;;;;;;5003689;28;20475;-47
2023/08/11 02:45:23;;;;;;;2.20;1.60;;;21.70;99.90;;;;;;5003406;28;20471;-47
2023/08/11 02:47:50;;;;;;;2.17;1.97;;;21.70;99.90;;;;;;5005648;28;20595;-47
2023/08/11 02:50:19;;;;;;;3.10;1.90;;;21.70;99.90;;;;;;5005616;28;20465;-49
2023/08/11 02:52:45;;;;;;;2.50;1.70;;;21.70;99.90;;;;;;5005978;28;20835;-47
2023/08/11 02:55:12;;;;;;;2.30;2.10;;;21.70;99.90;;;;;;5005447;28;20457;-45
2023/08/11 02:57:39;;;;;;;2.17;1.97;;;21.70;99.90;;;;;;5007196;28;20459;-46
2023/08/11 03:00:12;;;;;;;1.90;1.80;;;21.70;99.90;;;;;;5003496;28;20462;-49
2023/08/11 03:02:39;;;;;;;2.50;2.23;;;21.70;99.90;;;;;;5008787;28;20843;-46
2023/08/11 03:05:07;;;;;;;2.37;2.10;;;21.70;99.90;;;;;;5007953;28;20463;-48
2023/08/11 03:07:35;;;;;;;1.87;1.77;;;21.60;99.90;;;;;;5005334;28;20537;-46
2023/08/11 03:10:02;;;;;;;3.13;2.20;;;21.70;99.90;;;;;;5006346;28;20473;-45
2023/08/11 03:12:29;;;;;;;3.40;2.03;;;21.70;99.90;;;;;;5009534;28;20458;-45
2023/08/11 03:14:56;;;;;;;2.63;2.00;;;21.60;99.90;;;;;;5009928;28;20485;-46
2023/08/11 03:17:23;;;;;;;2.27;2.03;;;21.60;99.90;;;;;;5009853;28;20478;-45
2023/08/11 03:19:49;;;;;;;3.40;2.00;;;21.60;99.90;;;;;;5008573;28;20462;-46
2023/08/11 03:22:17;;;;;;;2.50;2.10;;;21.60;99.90;;;;;;5007690;28;20466;-46
2023/08/11 03:24:45;;;;;;;2.60;1.80;;;21.60;99.90;;;;;;5007525;28;20458;-46
2023/08/11 03:27:13;;;;;;;2.77;1.90;;;21.60;99.90;;;;;;5007859;28;20474;-47
2023/08/11 03:29:39;;;;;;;2.00;1.67;;;21.60;99.90;;;;;;5007299;28;20577;-50
2023/08/11 03:32:06;;;;;;;4.60;2.55;;;21.60;99.90;;;;;;5006253;28;20226;-48
2023/08/11 03:34:33;;;;;;;3.50;2.63;;;21.60;99.90;;;;;;5007515;28;20684;-47
2023/08/11 03:37:00;;;;;;;1.90;1.80;;;21.60;99.90;;;;;;5007261;28;20483;-45
2023/08/11 03:39:27;;;;;;;1.90;1.67;;;21.60;99.90;;;;;;5006805;28;20463;-45
2023/08/11 03:41:55;;;;;;;1.97;1.87;;;21.60;99.90;;;;;;5003742;28;20207;-46
2023/08/11 03:44:21;;;;;;;3.27;1.67;;;21.60;99.90;;;;;;5006778;28;20971;-46
2023/08/11 03:46:48;;;;;;;2.60;2.00;;;21.60;99.90;;;;;;5005810;28;20522;-45
2023/08/11 03:49:16;;;;;;;3.22;2.03;;;21.60;99.90;;;;;;5008771;28;20439;-45
2023/08/11 03:51:43;;;;;;;2.42;2.22;;;21.60;99.90;;;;;;5006715;28;20683;-48
2023/08/11 03:54:10;;;;;;;4.60;2.07;;;21.60;99.90;;;;;;5003387;28;20564;-46
2023/08/11 03:56:37;;;;;;;3.30;1.97;;;21.60;99.90;;;;;;5002686;28;20483;-47
2023/08/11 03:59:05;;;;;;;3.30;1.90;;;21.60;99.90;;;;;;5005460;28;20586;-48
2023/08/11 04:01:33;;;;;;;2.47;2.17;;;21.60;99.90;;;;;;5004029;28;21351;-46
2023/08/11 04:03:59;;;;;;;2.10;1.90;;;21.60;99.90;;;;;;5004831;28;21116;-45
2023/08/11 04:06:32;;;;;;;3.08;1.88;;;21.60;99.90;;;;;;5004164;28;20466;-47
2023/08/11 04:08:58;;;;;;;2.10;1.73;;;21.60;99.90;;;;;;5005013;28;20205;-48
2023/08/11 04:11:25;;;;;;;1.90;1.70;;;21.60;99.90;;;;;;5006902;28;20463;-47
2023/08/11 04:13:52;;;;;;;1.87;1.67;;;21.60;99.90;;;;;;5007275;28;20455;-45
2023/08/11 04:16:21;;;;;;;3.30;1.67;;;21.60;99.90;;;;;;5007047;28;20478;-47
2023/08/11 04:18:47;;;;;;;1.83;1.63;;;21.60;99.90;;;;;;5007932;28;20442;-45
2023/08/11 04:21:14;;;;;;;1.98;1.80;;;21.60;99.90;;;;;;5007966;28;20464;-46
2023/08/11 04:23:41;;;;;;;2.77;2.37;;;21.60;99.90;;;;;;5006591;28;20611;-50
2023/08/11 04:26:07;;;;;;;2.50;2.10;;;21.60;99.90;;;;;;5006621;28;20566;-47
2023/08/11 04:28:36;;;;;;;2.00;1.80;;;21.50;99.90;;;;;;5007703;28;21006;-47
2023/08/11 04:31:03;;;;;;;2.10;1.70;;;21.60;99.90;;;;;;5007483;28;20555;-46
2023/08/11 04:33:32;;;;;;;1.90;1.80;;;21.50;99.90;;;;;;5005562;28;20538;-45
2023/08/11 04:35:58;;;;;;;1.70;1.60;;;21.50;99.90;;;;;;5006861;28;21247;-45
2023/08/11 04:38:25;;;;;;;2.30;2.10;;;21.60;99.90;;;;;;5006930;28;20463;-47
2023/08/11 04:40:52;;;;;;;3.40;2.00;;;21.50;99.90;;;;;;5003442;28;20458;-44
2023/08/11 04:43:19;;;;;;;2.43;1.97;;;21.50;99.90;;;;;;5006522;28;20460;-47
2023/08/11 04:45:46;;;;;;;2.27;1.83;;;21.50;99.90;;;;;;5001295;28;20558;-46
2023/08/11 04:48:13;;;;;;;1.67;1.43;;;21.50;99.90;;;;;;5003956;28;20471;-44
2023/08/11 04:50:41;;;;;;;1.80;1.70;;;21.60;99.90;;;;;;5003279;28;20469;-46
2023/08/11 04:53:08;;;;;;;1.90;1.80;;;21.50;99.90;;;;;;5002325;28;20545;-44
2023/08/11 04:55:35;;;;;;;2.30;2.10;;;21.50;99.90;;;;;;5001008;28;20487;-46
2023/08/11 04:58:02;;;;;;;2.37;1.70;;;21.50;99.90;;;;;;5004822;28;20609;-43
2023/08/11 05:00:29;;;;;;;2.90;1.70;;;21.50;99.90;;;;;;4999121;28;20463;-44
2023/08/11 05:02:56;;;;;;;2.23;1.83;;;21.50;99.90;;;;;;5003464;28;20485;-43
2023/08/11 05:05:23;;;;;;;3.07;2.53;;;21.50;99.90;;;;;;5002943;28;20746;-44
2023/08/11 05:07:51;;;;;;;2.20;2.00;;;21.50;99.90;;;;;;5004673;28;21057;-47
2023/08/11 05:10:18;;;;;;;1.92;1.77;;;21.50;99.90;;;;;;5007517;28;20459;-44
2023/08/11 05:12:45;;;;;;;2.37;2.17;;;21.50;99.90;;;;;;5006540;28;20203;-44
2023/08/11 05:15:12;;;;;;;2.73;2.43;;;21.50;99.90;;;;;;5001652;28;20462;-45
2023/08/11 05:17:39;;;;;;;2.40;2.17;;;21.50;99.90;;;;;;5004244;28;20492;-46
2023/08/11 05:20:07;;;;;;;1.93;1.83;;;21.50;99.90;;;;;;5005394;28;20461;-47
2023/08/11 05:22:34;;;;;;;3.43;2.00;;;21.50;99.90;;;;;;5006297;28;20463;-44
2023/08/11 05:25:04;;;;;;;2.33;2.07;;;21.50;99.90;;;;;;5004179;28;20455;-46
2023/08/11 05:27:30;;;;;;;2.30;2.10;;;21.50;99.90;;;;;;5004180;28;20505;-49
2023/08/11 05:29:57;;;;;;;2.47;2.27;;;21.50;99.90;;;;;;5004276;28;20479;-45
2023/08/11 05:32:24;;;;;;;2.47;2.00;;;21.50;99.90;;;;;;4997521;28;20466;-47
2023/08/11 05:34:51;;;;;;;3.00;2.20;;;21.50;99.90;;;;;;5000925;28;20466;-50
2023/08/11 05:37:17;;;;;;;3.67;2.05;;;21.50;99.90;;;;;;5002434;28;20486;-49
2023/08/11 05:39:44;;;;;;;2.10;1.77;;;21.50;99.90;;;;;;4999820;28;20248;-48
2023/08/11 05:42:12;;;;;;;2.00;1.90;;;21.50;99.90;;;;;;5001983;28;20459;-49
2023/08/11 05:44:39;;;;;;;1.93;1.77;;;21.50;99.90;;;;;;5001329;28;20558;-53
2023/08/11 05:47:07;;;;;;;2.27;2.07;;;21.50;99.90;;;;;;5001601;28;20474;-49
2023/08/11 05:49:34;;;;;;;2.20;1.80;;;21.50;99.90;;;;;;4998846;28;20456;-50
2023/08/11 05:52:01;;;;;;;2.83;2.10;;;21.50;99.90;;;;;;5001151;28;20469;-50
2023/08/11 05:54:28;;;;;;;2.00;1.80;;;21.50;99.90;;;;;;5001021;28;20537;-51
2023/08/11 05:56:54;;;;;;;2.47;1.80;;;21.50;99.90;;;;;;5003858;28;20510;-48
2023/08/11 05:59:22;;;;;;;3.25;1.80;;;21.50;99.90;;;;;;5000404;28;20463;-48
2023/08/11 06:01:49;;;;;;;1.87;1.67;;;21.50;99.90;;;;;;4998590;28;20224;-49
2023/08/11 06:04:16;;;;;;;2.20;1.90;;;21.50;99.90;;;;;;5002969;28;20461;-49
2023/08/11 06:06:43;;;;;;;2.30;2.10;;;21.50;99.90;;;;;;5004180;28;20463;-48
2023/08/11 06:09:10;;;;;;;3.00;2.47;;;21.50;99.90;;;;;;5003112;28;20465;-52
2023/08/11 06:11:37;;;;;;;2.13;1.93;;;21.50;99.90;;;;;;5001780;28;20504;-51
2023/08/11 06:14:04;;;;;;;2.50;1.80;;;21.50;99.90;;;;;;5002620;28;20492;-51
2023/08/11 06:16:32;;;;;;;2.10;1.90;;;21.50;99.90;;;;;;5003233;28;20601;-53
2023/08/11 06:18:59;;;;;;;2.00;1.80;;;21.50;99.90;;;;;;5003511;28;20455;-51
2023/08/11 06:21:25;;;;;;;4.07;2.20;;;21.60;99.90;;;;;;5004537;28;20545;-48
2023/08/11 06:23:53;;;;;;;2.10;1.90;;;21.60;99.90;;;;;;5002880;28;20474;-49
2023/08/11 06:26:20;;;;;;;2.17;1.90;;;21.60;99.90;;;;;;5008201;28;20458;-50
2023/08/11 06:28:48;;;;;;;2.67;2.20;;;21.60;99.90;;;;;;5007690;28;20466;-48
2023/08/11 06:31:15;;;;;;;1.77;1.60;;;21.60;99.90;;;;;;5005946;28;20465;-48
2023/08/11 06:33:43;;;;;;;2.30;2.10;;;21.60;99.90;;;;;;5002126;28;20474;-51
2023/08/11 06:36:09;;;;;;;2.67;2.47;;;21.60;99.90;;;;;;5004100;28;20465;-50
2023/08/11 06:38:36;;;;;;;2.13;1.93;;;21.60;99.90;;;;;;5002051;28;21000;-50
2023/08/11 06:41:03;;;;;;;2.33;2.00;;;21.60;99.90;;;;;;5001590;28;20470;-52
2023/08/11 06:43:30;;;;;;;1.50;1.40;;;21.60;99.90;;;;;;4999623;28;23879;-51
2023/08/11 06:45:56;;;;;;;2.63;1.90;;;21.60;99.90;;;;;;5000926;28;20458;-49
2023/08/11 06:48:23;;;;;;;2.40;2.15;;;21.60;99.90;;;;;;5005684;28;20466;-52
2023/08/11 06:50:51;;;;;;;2.10;1.90;;;21.60;99.90;;;;;;4998078;28;20862;-52
2023/08/11 06:53:18;;;;;;;1.93;1.83;;;21.60;99.90;;;;;;5003291;28;20465;-50
2023/08/11 06:55:45;;;;;;;2.00;1.80;;;21.60;99.90;;;;;;4995264;28;20459;-51
2023/08/11 06:58:11;;;;;;;2.57;2.37;;;21.60;99.90;;;;;;5006305;28;20478;-53
2023/08/11 07:00:38;;;;;;;2.17;1.80;;;21.60;99.90;;;;;;5001425;28;20466;-52
2023/08/11 07:03:05;;;;;;;2.23;2.03;;;21.60;99.90;;;;;;5006708;28;20485;-49
2023/08/11 07:05:32;;;;;;;3.00;1.80;;;21.60;99.90;;;;;;5004376;28;20459;-53
2023/08/11 07:08:00;;;;;;;1.73;1.63;;;21.70;99.90;;;;;;5010124;28;20481;-49
2023/08/11 07:10:26;;;;;;;2.10;1.90;;;21.70;99.90;;;;;;5006659;28;20879;-49
2023/08/11 07:12:53;;;;;;;1.73;1.63;;;21.70;99.90;;;;;;5009850;28;20459;-50
2023/08/11 07:15:20;;;;;;;2.50;2.30;;;21.60;99.90;;;;;;5005698;28;20467;-50
2023/08/11 07:17:47;;;;;;;2.40;2.20;;;21.70;99.90;;;;;;5007908;28;20999;-51
2023/08/11 07:20:14;;;;;;;2.20;1.97;;;21.70;99.90;;;;;;5007876;28;20486;-52
2023/08/11 07:22:40;;;;;;;3.30;2.07;;;21.70;99.90;;;;;;5011582;28;20477;-51
2023/08/11 07:25:09;;;;;;;1.83;1.60;;;21.70;99.90;;;;;;5010455;28;21668;-49
2023/08/11 07:27:35;;;;;;;1.80;1.70;;;21.70;99.90;;;;;;5012578;28;20851;-51
2023/08/11 07:30:03;;;;;;;2.03;1.77;;;21.70;99.90;;;;;;5006814;28;20554;-52
2023/08/11 07:32:29;;;;;;;2.17;1.93;;;21.70;99.90;;;;;;5006445;28;20546;-50
2023/08/11 07:34:56;;;;;;;2.07;1.87;;;21.70;99.90;;;;;;5001083;28;20830;-50
2023/08/11 07:37:23;;;;;;;2.03;1.73;;;21.70;99.90;;;;;;5002682;28;20528;-52
2023/08/11 07:39:49;;;;;;;2.70;1.87;;;21.70;99.90;;;;;;5006021;28;21309;-51
2023/08/11 07:42:17;;;;;;;4.73;1.60;;;21.70;99.90;;;;;;5005806;28;21028;-49
2023/08/11 07:44:44;;;;;;;1.80;1.60;;;21.70;99.90;;;;;;5003303;28;20485;-51
2023/08/11 07:47:11;;;;;;;1.83;1.70;;;21.70;99.90;;;;;;5005189;28;20480;-52
2023/08/11 07:49:38;;;;;;;2.13;1.97;;;21.70;99.90;;;;;;5004468;28;20975;-52
2023/08/11 07:52:04;;;;;;;2.13;1.90;;;21.70;99.90;;;;;;5006105;28;20462;-49
2023/08/11 07:54:31;;;;;;;1.97;1.87;;;21.70;99.90;;;;;;5007415;28;20458;-51
2023/08/11 07:56:58;;;;;;;1.77;1.67;;;21.70;99.90;;;;;;5010759;28;20462;-52
2023/08/11 07:59:26;;;;;;;2.30;2.10;;;21.70;99.90;;;;;;5008678;28;21084;-51
2023/08/11 08:01:52;;;;;;;3.03;2.10;;;21.70;99.90;;;;;;5004174;28;20475;-49
2023/08/11 08:04:19;;;;;;;2.33;2.10;;;21.70;99.90;;;;;;5007312;28;20477;-49
2023/08/11 08:06:46;;;;;;;5.00;2.77;;;21.80;99.90;;;;;;5008538;28;20459;-50
2023/08/11 08:09:14;;;;;;;3.33;2.17;;;21.80;99.90;;;;;;5007538;28;20463;-49
2023/08/11 08:11:43;;;;;;;3.97;1.97;;;21.80;99.90;;;;;;5003544;28;20455;-51
2023/08/11 08:14:10;;;;;;;5.90;3.27;;;21.80;99.90;;;;;;5009400;28;20885;-51
2023/08/11 08:16:41;;;;;;;2.13;1.90;;;21.80;99.90;;;;;;5008571;28;21053;-48
2023/08/11 08:19:11;;;;;;;5.67;2.40;;;21.80;99.90;;;;;;5007633;28;20487;-48
2023/08/11 08:21:38;;;;;;;2.13;1.83;;;21.80;99.90;;;;;;5007067;28;20470;-52
2023/08/11 08:24:07;;;;;;;2.10;1.90;;;21.80;99.90;;;;;;5006243;28;20470;-50
2023/08/11 08:26:35;;;;;;;2.23;2.03;;;21.80;99.90;;;;;;5004459;28;20470;-50
2023/08/11 08:29:03;;;;;;;4.70;2.47;;;21.80;99.90;;;;;;5004629;28;21274;-51
2023/08/11 08:31:30;;;;;;;3.40;2.30;;;21.80;99.90;;;;;;5004677;28;20463;-60
2023/08/11 08:33:58;;;;;;;3.50;2.13;;;21.80;99.90;;;;;;4988288;28;20470;-56
2023/08/11 08:36:25;;;;;;;2.70;1.73;;;21.80;99.90;;;;;;4996153;28;20471;-55
2023/08/11 08:38:52;;;;;;;3.43;1.80;;;21.80;99.90;;;;;;4986866;28;20487;-59
2023/08/11 08:41:23;;;;;;;3.43;1.83;;;21.80;99.90;;;;;;5006325;28;20466;-58
2023/08/11 08:43:51;;;;;;;3.40;2.40;;;21.80;99.90;;;;;;5005338;28;20459;-54
2023/08/11 08:46:21;;;;;;;3.07;2.33;;;21.80;99.90;;;;;;5006956;28;20466;-50
2023/08/11 08:48:56;;;;;;;3.30;1.73;;;21.80;99.90;;;;;;5008652;28;20979;-50
2023/08/11 08:51:24;;;;;;;4.20;2.17;;;21.80;99.90;;;;;;5005442;28;20478;-51
2023/08/11 08:53:51;;;;;;;2.00;1.80;;;21.80;99.90;;;;;;5001875;28;20972;-53
2023/08/11 08:56:18;;;;;;;2.17;1.63;;;21.80;99.90;;;;;;4999388;28;20475;-53
2023/08/11 08:58:45;;;;;;;3.80;2.27;;;21.90;99.90;;;;;;5001505;28;20483;-55
2023/08/11 09:01:13;;;;;;;4.63;2.30;;;21.90;99.90;;;;;;5000587;28;20483;-51
2023/08/11 09:03:40;;;;;;;3.43;1.90;;;21.90;99.90;;;;;;4999491;28;20455;-51
2023/08/11 09:06:07;;;;;;;2.70;2.13;;;21.90;99.90;;;;;;5001297;28;20462;-49
2023/08/11 09:08:39;;;;;;;1.93;1.73;;;22.00;99.90;;;;;;4999755;28;20462;-58
2023/08/11 09:11:07;;;;;;;3.53;2.30;;;22.00;99.90;;;;;;4997747;28;20553;-49
2023/08/11 09:13:34;;;;;;;3.50;2.10;;;22.00;99.90;;;;;;4999413;28;20462;-49
2023/08/11 09:16:02;;;;;;;2.67;1.70;;;22.00;99.90;;;;;;5002994;28;20977;-53
2023/08/11 09:18:29;;;;;;;2.60;1.73;;;22.00;99.90;;;;;;5000657;28;20510;-53
2023/08/11 09:20:56;;;;;;;2.40;1.87;;;22.00;99.90;;;;;;5009203;28;20501;-47
2023/08/11 09:23:22;;;;;;;5.00;2.03;;;22.10;99.90;;;;;;5007274;28;20482;-54
2023/08/11 09:25:54;;;;;;;2.10;1.70;;;22.00;99.90;;;;;;5001901;28;20474;-56
2023/08/11 09:28:21;;;;;;;1.97;1.70;;;22.10;99.90;;;;;;5012128;28;20469;-55
2023/08/11 09:30:48;;;;;;;4.03;2.10;;;22.10;99.90;;;;;;5009574;28;20958;-53
2023/08/11 09:33:15;;;;;;;2.40;1.90;;;22.10;99.90;;;;;;5007350;28;20982;-49
2023/08/11 09:35:42;;;;;;;1.67;1.57;;;22.10;99.90;;;;;;5007238;28;20997;-50
2023/08/11 09:38:09;;;;;;;1.90;1.80;;;22.10;99.90;;;;;;5007561;28;20612;-50
2023/08/11 09:40:36;;;;;;;3.00;2.20;;;22.10;99.90;;;;;;5006186;28;20937;-54
2023/08/11 09:43:04;;;;;;;2.30;1.97;;;22.10;99.90;;;;;;5004003;28;20463;-56
2023/08/11 09:45:32;;;;;;;2.80;2.03;;;22.10;99.90;;;;;;5004380;28;20463;-51
2023/08/11 09:47:58;;;;;;;6.80;1.93;;;22.10;99.90;;;;;;5003207;28;20578;-50
2023/08/11 09:50:27;;;;;;;3.93;2.13;;;22.10;99.90;;;;;;5002336;28;20935;-55
2023/08/11 09:52:55;;;;;;;6.20;1.90;;;22.10;99.90;;;;;;5001918;28;21010;-53
2023/08/11 09:55:24;;;;;;;9.00;2.27;;;22.20;99.90;;;;;;5003038;28;21046;-52
2023/08/11 09:57:52;;;;;;;2.93;1.90;;;22.20;99.90;;;;;;5005845;28;20474;-50
2023/08/11 10:00:21;;;;;;;4.17;2.80;;;22.10;99.90;;;;;;5006283;28;20470;-49
2023/08/11 10:02:56;;;;;;;2.43;2.23;;;22.20;99.90;;;;;;5004036;28;20568;-50
2023/08/11 10:05:25;;;;;;;2.63;2.37;;;22.20;99.90;;;;;;5005873;28;20955;-45
2023/08/11 10:07:54;;;;;;;2.97;2.50;;;22.20;99.90;;;;;;5005777;28;20468;-49
2023/08/11 10:10:22;;;;;;;3.20;2.30;;;22.20;99.90;;;;;;5008942;28;20984;-48
2023/08/11 10:12:56;;;;;;;4.00;2.10;;;22.20;99.90;;;;;;5009105;28;21130;-50
2023/08/11 10:15:26;;;;;;;5.00;2.37;;;22.20;99.90;;;;;;5006254;28;21886;-49
2023/08/11 10:17:54;;;;;;;3.03;2.10;;;22.20;99.90;;;;;;5005572;28;21255;-47
2023/08/11 10:20:21;;;;;;;2.30;2.10;;;22.20;99.90;;;;;;5012814;28;20471;-48
2023/08/11 10:22:49;;;;;;;2.43;2.23;;;22.20;99.90;;;;;;5006757;28;20463;-51
2023/08/11 10:25:16;;;;;;;5.17;2.40;;;22.20;99.90;;;;;;5003311;28;20459;-49
2023/08/11 10:27:43;;;;;;;2.43;2.23;;;22.20;99.90;;;;;;5008947;28;20463;-49
2023/08/11 10:30:14;;;;;;;4.80;2.47;;;22.20;99.90;;;;;;5004623;28;20463;-49
2023/08/11 10:32:42;;;;;;;4.30;2.50;;;22.20;99.90;;;;;;5006705;28;20966;-45
2023/08/11 10:35:17;;;;;;;4.57;2.67;;;22.20;99.90;;;;;;5008135;28;20466;-52
2023/08/11 10:37:44;;;;;;;3.97;2.47;;;22.20;99.90;;;;;;5007048;28;20969;-51
2023/08/11 10:40:11;;;;;;;3.67;2.20;;;22.20;99.90;;;;;;5007892;28;20467;-50
2023/08/11 10:42:40;;;;;;;2.40;2.20;;;22.20;99.90;;;;;;5005349;28;20545;-49
2023/08/11 10:45:11;;;;;;;3.93;2.30;;;22.20;99.90;;;;;;5006638;28;20494;-51
2023/08/11 10:47:39;;;;;;;3.00;2.33;;;22.20;99.90;;;;;;5006302;28;20518;-49
2023/08/11 10:50:09;;;;;;;5.00;2.17;;;22.20;99.90;;;;;;5005540;28;20462;-47
2023/08/11 10:52:36;;;;;;;2.47;2.27;;;22.20;99.90;;;;;;5002365;28;20463;-52
2023/08/11 10:55:04;;;;;;;3.87;3.47;;;22.20;99.90;;;;;;5005191;28;20454;-49
2023/08/11 10:57:31;;;;;;;8.60;2.87;;;22.20;99.90;;;;;;5003315;28;20974;-50
2023/08/11 10:59:58;;;;;;;5.20;3.30;;;22.20;99.90;;;;;;5006442;28;21095;-51
2023/08/11 11:02:25;;;;;;;8.30;2.50;;;22.20;99.90;;;;;;5006694;28;20589;-48
2023/08/11 11:04:53;;;;;;;2.57;2.37;;;22.20;99.90;;;;;;5004441;28;20493;-47
2023/08/11 11:07:23;;;;;;;4.50;2.37;;;22.20;99.90;;;;;;5001498;28;20528;-52
2023/08/11 11:09:51;;;;;;;5.27;2.57;;;22.20;99.90;;;;;;5003911;28;20918;-53
2023/08/11 11:12:18;;;;;;;5.43;2.50;;;22.20;99.90;;;;;;5007790;28;20466;-50
2023/08/11 11:14:45;;;;;;;6.57;2.53;;;22.20;99.90;;;;;;5006747;28;20467;-50
2023/08/11 11:17:12;;;;;;;3.90;3.10;;;22.20;99.90;;;;;;5008753;28;21202;-49
2023/08/11 11:19:38;;;;;;;3.00;2.67;;;22.20;99.90;;;;;;5008598;28;20489;-48
2023/08/11 11:22:07;;;;;;;3.87;2.60;;;22.20;99.90;;;;;;5010270;28;20477;-50
2023/08/11 11:24:35;;;;;;;5.93;2.80;;;22.20;99.90;;;;;;5006356;28;20819;-48
2023/08/11 11:27:03;;;;;;;3.23;2.93;;;22.20;99.90;;;;;;5007059;28;20469;-49
2023/08/11 11:29:31;;;;;;;4.07;2.70;;;22.20;99.90;;;;;;5005190;28;21077;-52
2023/08/11 11:32:04;;;;;;;9.70;3.40;;;22.20;99.90;;;;;;5004061;28;20467;-53
2023/08/11 11:34:32;;;;;;;2.60;2.40;;;22.20;99.90;;;;;;5007279;28;20518;-47
2023/08/11 11:36:59;;;;;;;4.27;2.60;;;22.20;99.90;;;;;;5008033;28;21158;-48
2023/08/11 11:39:26;;;;;;;2.43;2.20;;;22.20;99.90;;;;;;5006092;28;21011;-48
2023/08/11 11:41:54;;;;;;;3.03;2.60;;;22.20;99.90;;;;;;5006823;28;20857;-50
2023/08/11 11:44:21;;;;;;;3.00;2.70;;;22.20;99.90;;;;;;5010131;28;20463;-50
2023/08/11 11:46:48;;;;;;;3.70;2.10;;;22.20;99.90;;;;;;5005009;28;20954;-48
2023/08/11 11:49:16;;;;;;;3.00;2.70;;;22.20;99.90;;;;;;5007308;28;20471;-49
2023/08/11 11:51:43;;;;;;;2.50;2.30;;;22.20;99.90;;;;;;5003760;28;20943;-50
2023/08/11 11:54:10;;;;;;;5.20;3.37;;;22.20;99.90;;;;;;5007692;28;20824;-51
2023/08/11 11:56:36;;;;;;;2.93;2.57;;;22.20;99.90;;;;;;5007024;28;20463;-51
2023/08/11 11:59:06;;;;;;;3.47;2.50;;;22.20;99.90;;;;;;5005204;28;20489;-51
2023/08/11 12:01:33;;;;;;;2.70;2.50;;;22.20;99.90;;;;;;5004878;28;20483;-52
2023/08/11 12:04:00;;;;;;;2.83;2.37;;;22.20;99.90;;;;;;5001931;28;20450;-57
2023/08/11 12:06:28;;;;;;;3.60;2.73;;;22.20;99.90;;;;;;5004356;28;20456;-59
2023/08/11 12:09:02;;;;;;;4.50;3.10;;;22.30;99.90;;;;;;5003217;28;20458;-57
2023/08/11 12:11:30;;;;;;;3.57;3.10;;;22.30;99.90;;;;;;5004354;28;20465;-54
2023/08/11 12:13:59;;;;;;;3.37;2.40;;;22.30;99.90;;;;;;5001222;28;20553;-52
2023/08/11 12:16:28;;;;;;;5.10;2.73;;;22.30;99.90;;;;;;4998789;28;20458;-54
2023/08/11 12:18:59;;;;;;;4.60;2.23;;;22.30;99.90;;;;;;5001332;28;21030;-57
2023/08/11 12:21:26;;;;;;;2.87;2.40;;;22.30;99.90;;;;;;5005616;28;20836;-53
2023/08/11 12:23:53;;;;;;;4.63;2.80;;;22.30;99.90;;;;;;5004887;28;20886;-56
2023/08/11 12:26:20;;;;;;;4.80;2.20;;;22.30;99.90;;;;;;5005051;28;20466;-54
2023/08/11 12:28:47;;;;;;;2.40;2.20;;;22.30;99.90;;;;;;5004566;28;21189;-54
2023/08/11 12:31:14;;;;;;;2.60;2.13;;;22.30;99.90;;;;;;4999291;28;20792;-56
2023/08/11 12:33:42;;;;;;;2.70;2.50;;;22.30;99.90;;;;;;5002447;28;20470;-56
2023/08/11 12:36:09;;;;;;;3.73;2.40;;;22.30;99.90;;;;;;5002213;28;20467;-48
2023/08/11 12:38:36;;;;;;;3.70;2.33;;;22.40;99.90;;;;;;5000477;28;21090;-48
2023/08/11 12:41:02;;;;;;;2.77;2.27;;;22.40;99.90;;;;;;4998602;28;20485;-54
2023/08/11 12:43:29;;;;;;;3.07;2.60;;;22.40;99.90;;;;;;5001109;28;20529;-48
2023/08/11 12:45:56;;;;;;;4.73;4.33;;;22.40;99.90;;;;;;5001174;28;20462;-53
2023/08/11 12:48:23;;;;;;;3.30;2.30;;;22.40;99.90;;;;;;5009558;28;20921;-51